sensor_id;sensor_type;location;lat;lon;timestamp;temperature;humidity
46652;DHT22;32377;52.182;5.398;2023-06-24T00:02:01;19.40;99.90
46652;DHT22;32377;52.182;5.398;2023-06-24T00:04:27;19.40;99.90
46652;DHT22;32377;52.182;5.398;2023-06-24T00:06:53;19.30;99.90
46652;DHT22;32377;52.182;5.398;2023-06-24T00:09:21;19.30;99.90
46652;DHT22;32377;52.182;5.398;2023-06-24T00:11:47;19.30;99.90
46652;DHT22;32377;52.182;5.398;2023-06-24T00:14:13;19.40;99.90
46652;DHT22;32377;52.182;5.398;2023-06-24T00:16:40;19.30;99.90
46652;DHT22;32377;52.182;5.398;2023-06-24T00:19:07;19.20;99.90
46652;DHT22;32377;52.182;5.398;2023-06-24T00:21:33;19.20;99.90
46652;DHT22;32377;52.182;5.398;2023-06-24T00:24:00;19.10;99.90
46652;DHT22;32377;52.182;5.398;2023-06-24T00:26:28;19.10;99.90
46652;DHT22;32377;52.182;5.398;2023-06-24T00:28:53;19.10;99.90
46652;DHT22;32377;52.182;5.398;2023-06-24T00:31:20;19.00;99.90
46652;DHT22;32377;52.182;5.398;2023-06-24T00:33:46;18.90;99.90
46652;DHT22;32377;52.182;5.398;2023-06-24T00:36:12;18.90;99.90
46652;DHT22;32377;52.182;5.398;2023-06-24T00:38:38;18.90;99.90
46652;DHT22;32377;52.182;5.398;2023-06-24T00:41:04;18.90;99.90
46652;DHT22;32377;52.182;5.398;2023-06-24T00:43:30;18.90;99.90
46652;DHT22;32377;52.182;5.398;2023-06-24T00:45:56;18.80;99.90
46652;DHT22;32377;52.182;5.398;2023-06-24T00:48:23;18.80;99.90
46652;DHT22;32377;52.182;5.398;2023-06-24T00:50:49;18.60;99.90
46652;DHT22;32377;52.182;5.398;2023-06-24T00:53:16;18.60;99.90
46652;DHT22;32377;52.182;5.398;2023-06-24T00:55:42;18.60;99.90
46652;DHT22;32377;52.182;5.398;2023-06-24T00:58:08;18.70;99.90
46652;DHT22;32377;52.182;5.398;2023-06-24T01:00:34;18.60;99.90
46652;DHT22;32377;52.182;5.398;2023-06-24T01:03:00;18.50;99.90
46652;DHT22;32377;52.182;5.398;2023-06-24T01:05:28;18.50;99.90
46652;DHT22;32377;52.182;5.398;2023-06-24T01:07:55;18.50;99.90
46652;DHT22;32377;52.182;5.398;2023-06-24T01:10:22;18.50;99.90
46652;DHT22;32377;52.182;5.398;2023-06-24T01:12:49;18.50;99.90
46652;DHT22;32377;52.182;5.398;2023-06-24T01:15:15;18.50;99.90
46652;DHT22;32377;52.182;5.398;2023-06-24T01:20:36;18.30;99.90
46652;DHT22;32377;52.182;5.398;2023-06-24T01:23:11;18.30;99.90
46652;DHT22;32377;52.182;5.398;2023-06-24T01:37:00;18.10;99.90
46652;DHT22;32377;52.182;5.398;2023-06-24T01:39:28;18.00;99.90
46652;DHT22;32377;52.182;5.398;2023-06-24T01:42:03;18.00;99.90
46652;DHT22;32377;52.182;5.398;2023-06-24T01:44:32;17.90;99.90
46652;DHT22;32377;52.182;5.398;2023-06-24T01:46:59;18.00;99.90
46652;DHT22;32377;52.182;5.398;2023-06-24T01:49:28;18.00;99.90
46652;DHT22;32377;52.182;5.398;2023-06-24T01:51:57;17.90;99.90
46652;DHT22;32377;52.182;5.398;2023-06-24T01:54:24;17.90;99.90
46652;DHT22;32377;52.182;5.398;2023-06-24T01:56:52;17.80;99.90
46652;DHT22;32377;52.182;5.398;2023-06-24T01:59:20;17.80;99.90
46652;DHT22;32377;52.182;5.398;2023-06-24T02:01:47;17.80;99.90
46652;DHT22;32377;52.182;5.398;2023-06-24T02:04:13;17.80;99.90
46652;DHT22;32377;52.182;5.398;2023-06-24T02:06:40;17.70;99.90
46652;DHT22;32377;52.182;5.398;2023-06-24T02:09:07;17.70;99.90
46652;DHT22;32377;52.182;5.398;2023-06-24T02:11:33;17.70;99.90
46652;DHT22;32377;52.182;5.398;2023-06-24T02:14:02;17.70;99.90
46652;DHT22;32377;52.182;5.398;2023-06-24T02:16:29;17.60;99.90
46652;DHT22;32377;52.182;5.398;2023-06-24T02:18:56;17.60;99.90
46652;DHT22;32377;52.182;5.398;2023-06-24T02:21:23;17.50;99.90
46652;DHT22;32377;52.182;5.398;2023-06-24T02:23:51;17.50;99.90
46652;DHT22;32377;52.182;5.398;2023-06-24T02:26:17;17.50;99.90
46652;DHT22;32377;52.182;5.398;2023-06-24T02:28:47;17.40;99.90
46652;DHT22;32377;52.182;5.398;2023-06-24T02:31:15;17.40;99.90
46652;DHT22;32377;52.182;5.398;2023-06-24T02:33:41;17.30;99.90
46652;DHT22;32377;52.182;5.398;2023-06-24T02:36:07;17.30;99.90
46652;DHT22;32377;52.182;5.398;2023-06-24T02:38:33;17.20;99.90
46652;DHT22;32377;52.182;5.398;2023-06-24T02:40:58;17.20;99.90
46652;DHT22;32377;52.182;5.398;2023-06-24T02:43:25;17.20;99.90
46652;DHT22;32377;52.182;5.398;2023-06-24T02:45:52;17.20;99.90
46652;DHT22;32377;52.182;5.398;2023-06-24T02:48:19;17.30;99.90
46652;DHT22;32377;52.182;5.398;2023-06-24T02:50:46;17.30;99.90
46652;DHT22;32377;52.182;5.398;2023-06-24T02:53:13;17.30;99.90
46652;DHT22;32377;52.182;5.398;2023-06-24T02:55:40;17.20;99.90
46652;DHT22;32377;52.182;5.398;2023-06-24T02:58:07;17.20;99.90
46652;DHT22;32377;52.182;5.398;2023-06-24T03:00:34;17.20;99.90
46652;DHT22;32377;52.182;5.398;2023-06-24T03:03:04;17.10;99.90
46652;DHT22;32377;52.182;5.398;2023-06-24T03:05:31;17.00;99.90
46652;DHT22;32377;52.182;5.398;2023-06-24T03:07:58;17.00;99.90
46652;DHT22;32377;52.182;5.398;2023-06-24T03:10:24;17.00;99.90
46652;DHT22;32377;52.182;5.398;2023-06-24T03:12:51;17.10;99.90
46652;DHT22;32377;52.182;5.398;2023-06-24T03:15:17;17.10;99.90
46652;DHT22;32377;52.182;5.398;2023-06-24T03:17:43;17.00;99.90
46652;DHT22;32377;52.182;5.398;2023-06-24T03:20:09;17.10;99.90
46652;DHT22;32377;52.182;5.398;2023-06-24T03:22:35;17.00;99.90
46652;DHT22;32377;52.182;5.398;2023-06-24T03:25:00;17.00;99.90
46652;DHT22;32377;52.182;5.398;2023-06-24T03:27:26;16.90;99.90
46652;DHT22;32377;52.182;5.398;2023-06-24T03:29:52;16.90;99.90
46652;DHT22;32377;52.182;5.398;2023-06-24T03:32:17;16.90;99.90
46652;DHT22;32377;52.182;5.398;2023-06-24T03:34:43;16.90;99.90
46652;DHT22;32377;52.182;5.398;2023-06-24T03:37:08;16.90;99.90
46652;DHT22;32377;52.182;5.398;2023-06-24T03:39:34;16.90;99.90
46652;DHT22;32377;52.182;5.398;2023-06-24T03:42:00;16.80;99.90
46652;DHT22;32377;52.182;5.398;2023-06-24T03:44:26;16.80;99.90
46652;DHT22;32377;52.182;5.398;2023-06-24T03:46:51;16.80;99.90
46652;DHT22;32377;52.182;5.398;2023-06-24T03:49:17;16.80;99.90
46652;DHT22;32377;52.182;5.398;2023-06-24T03:51:43;16.90;99.90
46652;DHT22;32377;52.182;5.398;2023-06-24T03:54:09;16.90;99.90
46652;DHT22;32377;52.182;5.398;2023-06-24T03:58:43;16.80;99.90
46652;DHT22;32377;52.182;5.398;2023-06-24T04:01:09;16.80;99.90
46652;DHT22;32377;52.182;5.398;2023-06-24T04:03:35;16.80;99.90
46652;DHT22;32377;52.182;5.398;2023-06-24T04:06:01;16.80;99.90
46652;DHT22;32377;52.182;5.398;2023-06-24T04:08:29;16.80;99.90
46652;DHT22;32377;52.182;5.398;2023-06-24T04:10:58;16.80;99.90
46652;DHT22;32377;52.182;5.398;2023-06-24T04:13:29;16.80;99.90
46652;DHT22;32377;52.182;5.398;2023-06-24T04:15:55;16.80;99.90
46652;DHT22;32377;52.182;5.398;2023-06-24T04:18:20;16.90;99.90
46652;DHT22;32377;52.182;5.398;2023-06-24T04:20:46;16.90;99.90
46652;DHT22;32377;52.182;5.398;2023-06-24T04:23:12;16.90;99.90
46652;DHT22;32377;52.182;5.398;2023-06-24T04:25:40;17.00;99.90
46652;DHT22;32377;52.182;5.398;2023-06-24T04:28:06;17.00;99.90
46652;DHT22;32377;52.182;5.398;2023-06-24T04:30:32;17.00;99.90
46652;DHT22;32377;52.182;5.398;2023-06-24T04:32:58;17.10;99.90
46652;DHT22;32377;52.182;5.398;2023-06-24T04:35:24;17.10;99.90
46652;DHT22;32377;52.182;5.398;2023-06-24T04:37:50;17.20;99.90
46652;DHT22;32377;52.182;5.398;2023-06-24T04:40:17;17.20;99.90
46652;DHT22;32377;52.182;5.398;2023-06-24T04:42:45;17.40;99.90
46652;DHT22;32377;52.182;5.398;2023-06-24T04:45:11;17.50;99.90
46652;DHT22;32377;52.182;5.398;2023-06-24T04:47:36;17.60;99.90
46652;DHT22;32377;52.182;5.398;2023-06-24T04:50:03;17.90;99.90
46652;DHT22;32377;52.182;5.398;2023-06-24T04:52:29;18.20;99.90
46652;DHT22;32377;52.182;5.398;2023-06-24T04:54:54;18.40;99.90
46652;DHT22;32377;52.182;5.398;2023-06-24T04:57:28;18.60;99.90
46652;DHT22;32377;52.182;5.398;2023-06-24T04:59:55;18.80;99.90
46652;DHT22;32377;52.182;5.398;2023-06-24T05:02:21;18.90;99.90
46652;DHT22;32377;52.182;5.398;2023-06-24T05:04:47;19.10;99.90
46652;DHT22;32377;52.182;5.398;2023-06-24T05:07:12;19.10;99.90
46652;DHT22;32377;52.182;5.398;2023-06-24T05:09:38;19.00;99.90
46652;DHT22;32377;52.182;5.398;2023-06-24T05:12:07;18.90;99.90
46652;DHT22;32377;52.182;5.398;2023-06-24T05:14:37;18.90;99.90
46652;DHT22;32377;52.182;5.398;2023-06-24T05:17:03;18.80;99.90
46652;DHT22;32377;52.182;5.398;2023-06-24T05:19:28;18.80;99.90
46652;DHT22;32377;52.182;5.398;2023-06-24T05:21:54;18.80;99.90
46652;DHT22;32377;52.182;5.398;2023-06-24T05:24:20;18.90;99.90
46652;DHT22;32377;52.182;5.398;2023-06-24T05:26:49;19.10;99.90
46652;DHT22;32377;52.182;5.398;2023-06-24T05:29:14;19.30;99.90
46652;DHT22;32377;52.182;5.398;2023-06-24T05:31:40;19.50;99.90
46652;DHT22;32377;52.182;5.398;2023-06-24T05:34:06;19.60;99.90
46652;DHT22;32377;52.182;5.398;2023-06-24T05:36:33;19.70;99.90
46652;DHT22;32377;52.182;5.398;2023-06-24T05:38:58;19.80;99.90
46652;DHT22;32377;52.182;5.398;2023-06-24T05:41:24;20.00;99.90
46652;DHT22;32377;52.182;5.398;2023-06-24T05:43:59;20.00;99.90
46652;DHT22;32377;52.182;5.398;2023-06-24T05:46:26;20.10;99.90
46652;DHT22;32377;52.182;5.398;2023-06-24T05:48:51;20.20;99.90
46652;DHT22;32377;52.182;5.398;2023-06-24T05:51:17;20.30;99.90
46652;DHT22;32377;52.182;5.398;2023-06-24T05:53:42;20.30;99.90
46652;DHT22;32377;52.182;5.398;2023-06-24T05:56:08;20.50;99.90
46652;DHT22;32377;52.182;5.398;2023-06-24T05:58:34;20.60;99.90
46652;DHT22;32377;52.182;5.398;2023-06-24T06:00:59;20.60;99.90
46652;DHT22;32377;52.182;5.398;2023-06-24T06:03:26;20.70;99.90
46652;DHT22;32377;52.182;5.398;2023-06-24T06:05:52;20.70;99.90
46652;DHT22;32377;52.182;5.398;2023-06-24T06:08:17;20.80;99.90
46652;DHT22;32377;52.182;5.398;2023-06-24T06:10:43;20.80;99.90
46652;DHT22;32377;52.182;5.398;2023-06-24T06:13:09;20.90;99.90
46652;DHT22;32377;52.182;5.398;2023-06-24T06:15:34;21.00;99.90
46652;DHT22;32377;52.182;5.398;2023-06-24T06:18:00;21.10;99.90
46652;DHT22;32377;52.182;5.398;2023-06-24T06:20:25;21.10;99.90
46652;DHT22;32377;52.182;5.398;2023-06-24T06:22:51;21.20;99.90
46652;DHT22;32377;52.182;5.398;2023-06-24T06:25:17;21.20;99.90
46652;DHT22;32377;52.182;5.398;2023-06-24T06:27:42;21.30;99.90
46652;DHT22;32377;52.182;5.398;2023-06-24T06:30:08;21.40;99.90
46652;DHT22;32377;52.182;5.398;2023-06-24T06:32:34;21.50;99.90
46652;DHT22;32377;52.182;5.398;2023-06-24T06:34:59;21.40;99.90
46652;DHT22;32377;52.182;5.398;2023-06-24T06:37:25;21.30;99.90
46652;DHT22;32377;52.182;5.398;2023-06-24T06:39:51;21.40;99.90
46652;DHT22;32377;52.182;5.398;2023-06-24T06:42:16;21.60;99.90
46652;DHT22;32377;52.182;5.398;2023-06-24T06:44:42;21.60;99.90
46652;DHT22;32377;52.182;5.398;2023-06-24T06:47:07;21.60;99.90
46652;DHT22;32377;52.182;5.398;2023-06-24T06:49:33;21.70;99.90
46652;DHT22;32377;52.182;5.398;2023-06-24T06:51:59;21.70;99.90
46652;DHT22;32377;52.182;5.398;2023-06-24T06:54:24;21.70;99.90
46652;DHT22;32377;52.182;5.398;2023-06-24T06:56:50;21.90;99.90
46652;DHT22;32377;52.182;5.398;2023-06-24T06:59:16;22.00;99.90
46652;DHT22;32377;52.182;5.398;2023-06-24T07:01:41;22.20;99.90
46652;DHT22;32377;52.182;5.398;2023-06-24T07:04:07;22.30;99.90
46652;DHT22;32377;52.182;5.398;2023-06-24T07:06:33;22.30;99.90
46652;DHT22;32377;52.182;5.398;2023-06-24T07:08:59;22.40;99.90
46652;DHT22;32377;52.182;5.398;2023-06-24T07:11:25;22.50;99.90
46652;DHT22;32377;52.182;5.398;2023-06-24T07:13:51;22.60;99.90
46652;DHT22;32377;52.182;5.398;2023-06-24T07:16:17;22.70;99.90
46652;DHT22;32377;52.182;5.398;2023-06-24T07:18:43;22.90;99.90
46652;DHT22;32377;52.182;5.398;2023-06-24T07:21:09;23.10;99.90
46652;DHT22;32377;52.182;5.398;2023-06-24T07:23:35;23.20;99.90
46652;DHT22;32377;52.182;5.398;2023-06-24T07:26:00;23.20;99.90
46652;DHT22;32377;52.182;5.398;2023-06-24T07:28:26;23.00;99.90
46652;DHT22;32377;52.182;5.398;2023-06-24T07:30:52;23.20;99.90
46652;DHT22;32377;52.182;5.398;2023-06-24T07:33:17;23.20;99.90
46652;DHT22;32377;52.182;5.398;2023-06-24T07:35:43;23.40;99.90
46652;DHT22;32377;52.182;5.398;2023-06-24T07:38:08;23.40;99.90
46652;DHT22;32377;52.182;5.398;2023-06-24T07:40:34;23.50;99.90
46652;DHT22;32377;52.182;5.398;2023-06-24T07:43:00;23.80;99.90
46652;DHT22;32377;52.182;5.398;2023-06-24T07:45:25;23.80;99.90
46652;DHT22;32377;52.182;5.398;2023-06-24T07:47:51;23.70;99.90
46652;DHT22;32377;52.182;5.398;2023-06-24T07:50:17;23.80;99.90
46652;DHT22;32377;52.182;5.398;2023-06-24T07:52:42;23.90;99.90
46652;DHT22;32377;52.182;5.398;2023-06-24T07:55:08;24.00;99.90
46652;DHT22;32377;52.182;5.398;2023-06-24T07:57:34;24.10;99.90
46652;DHT22;32377;52.182;5.398;2023-06-24T07:59:59;24.10;99.90
46652;DHT22;32377;52.182;5.398;2023-06-24T08:02:25;24.10;99.90
46652;DHT22;32377;52.182;5.398;2023-06-24T08:04:51;24.20;99.90
46652;DHT22;32377;52.182;5.398;2023-06-24T08:07:17;24.40;99.90
46652;DHT22;32377;52.182;5.398;2023-06-24T08:09:43;24.50;99.90
46652;DHT22;32377;52.182;5.398;2023-06-24T08:12:09;24.60;99.90
46652;DHT22;32377;52.182;5.398;2023-06-24T08:14:35;24.60;99.90
46652;DHT22;32377;52.182;5.398;2023-06-24T08:17:01;24.60;99.90
46652;DHT22;32377;52.182;5.398;2023-06-24T08:19:26;24.80;99.90
46652;DHT22;32377;52.182;5.398;2023-06-24T08:21:52;24.80;99.90
46652;DHT22;32377;52.182;5.398;2023-06-24T08:24:18;25.00;99.90
46652;DHT22;32377;52.182;5.398;2023-06-24T08:26:43;25.20;99.90
46652;DHT22;32377;52.182;5.398;2023-06-24T08:29:09;25.00;99.90
46652;DHT22;32377;52.182;5.398;2023-06-24T08:31:34;25.00;99.90
46652;DHT22;32377;52.182;5.398;2023-06-24T08:34:00;25.00;99.90
46652;DHT22;32377;52.182;5.398;2023-06-24T08:36:28;25.30;99.90
46652;DHT22;32377;52.182;5.398;2023-06-24T08:38:54;25.50;99.90
46652;DHT22;32377;52.182;5.398;2023-06-24T08:41:20;25.60;99.90
46652;DHT22;32377;52.182;5.398;2023-06-24T08:43:46;25.80;99.40
46652;DHT22;32377;52.182;5.398;2023-06-24T08:46:13;25.90;99.90
46652;DHT22;32377;52.182;5.398;2023-06-24T08:48:42;25.70;99.50
46652;DHT22;32377;52.182;5.398;2023-06-24T08:51:12;25.70;99.40
46652;DHT22;32377;52.182;5.398;2023-06-24T08:53:42;25.60;98.90
46652;DHT22;32377;52.182;5.398;2023-06-24T08:56:09;25.50;99.90
46652;DHT22;32377;52.182;5.398;2023-06-24T08:58:35;25.50;99.90
46652;DHT22;32377;52.182;5.398;2023-06-24T09:01:02;25.50;99.90
46652;DHT22;32377;52.182;5.398;2023-06-24T09:03:28;25.60;99.90
46652;DHT22;32377;52.182;5.398;2023-06-24T09:05:53;25.60;99.90
46652;DHT22;32377;52.182;5.398;2023-06-24T09:08:19;25.60;99.80
46652;DHT22;32377;52.182;5.398;2023-06-24T09:10:55;25.60;99.50
46652;DHT22;32377;52.182;5.398;2023-06-24T09:13:21;25.60;99.40
46652;DHT22;32377;52.182;5.398;2023-06-24T09:15:53;25.60;99.70
46652;DHT22;32377;52.182;5.398;2023-06-24T09:18:18;25.70;99.90
46652;DHT22;32377;52.182;5.398;2023-06-24T09:20:45;25.90;99.00
46652;DHT22;32377;52.182;5.398;2023-06-24T09:23:16;26.00;98.80
46652;DHT22;32377;52.182;5.398;2023-06-24T09:25:42;26.00;99.10
46652;DHT22;32377;52.182;5.398;2023-06-24T09:28:08;26.10;99.10
46652;DHT22;32377;52.182;5.398;2023-06-24T09:30:33;26.20;98.90
46652;DHT22;32377;52.182;5.398;2023-06-24T09:32:59;26.40;98.50
46652;DHT22;32377;52.182;5.398;2023-06-24T09:35:25;26.50;99.00
46652;DHT22;32377;52.182;5.398;2023-06-24T09:37:52;26.40;98.80
46652;DHT22;32377;52.182;5.398;2023-06-24T09:40:19;26.40;98.20
46652;DHT22;32377;52.182;5.398;2023-06-24T09:45:14;26.10;98.10
46652;DHT22;32377;52.182;5.398;2023-06-24T09:47:40;26.10;98.30
46652;DHT22;32377;52.182;5.398;2023-06-24T09:50:06;26.20;99.10
46652;DHT22;32377;52.182;5.398;2023-06-24T09:52:35;26.20;99.00
46652;DHT22;32377;52.182;5.398;2023-06-24T09:55:01;26.20;99.30
46652;DHT22;32377;52.182;5.398;2023-06-24T09:58:44;26.20;98.30
46652;DHT22;32377;52.182;5.398;2023-06-24T10:01:11;26.30;99.10
46652;DHT22;32377;52.182;5.398;2023-06-24T10:03:37;26.30;98.40
46652;DHT22;32377;52.182;5.398;2023-06-24T10:06:05;26.30;98.50
46652;DHT22;32377;52.182;5.398;2023-06-24T10:08:32;26.20;98.20
46652;DHT22;32377;52.182;5.398;2023-06-24T10:10:59;26.30;98.90
46652;DHT22;32377;52.182;5.398;2023-06-24T10:13:25;26.40;97.90
46652;DHT22;32377;52.182;5.398;2023-06-24T10:15:51;26.40;98.40
46652;DHT22;32377;52.182;5.398;2023-06-24T10:18:37;26.60;98.80
46652;DHT22;32377;52.182;5.398;2023-06-24T10:21:07;26.60;98.50
46652;DHT22;32377;52.182;5.398;2023-06-24T10:23:40;26.80;98.50
46652;DHT22;32377;52.182;5.398;2023-06-24T10:26:11;26.90;98.10
46652;DHT22;32377;52.182;5.398;2023-06-24T10:34:28;26.90;98.90
46652;DHT22;32377;52.182;5.398;2023-06-24T10:37:02;26.90;98.50
46652;DHT22;32377;52.182;5.398;2023-06-24T10:45:17;26.70;97.30
46652;DHT22;32377;52.182;5.398;2023-06-24T10:47:45;26.60;97.10
46652;DHT22;32377;52.182;5.398;2023-06-24T10:50:13;26.70;97.50
46652;DHT22;32377;52.182;5.398;2023-06-24T10:52:40;26.70;98.00
46652;DHT22;32377;52.182;5.398;2023-06-24T10:55:07;26.60;98.70
46652;DHT22;32377;52.182;5.398;2023-06-24T10:57:33;26.50;98.40
46652;DHT22;32377;52.182;5.398;2023-06-24T10:59:59;26.30;98.70
46652;DHT22;32377;52.182;5.398;2023-06-24T11:02:26;26.10;99.20
46652;DHT22;32377;52.182;5.398;2023-06-24T11:04:53;26.20;99.80
46652;DHT22;32377;52.182;5.398;2023-06-24T11:07:21;26.40;99.30
46652;DHT22;32377;52.182;5.398;2023-06-24T11:12:33;26.60;98.50
46652;DHT22;32377;52.182;5.398;2023-06-24T11:15:02;26.60;98.20
46652;DHT22;32377;52.182;5.398;2023-06-24T11:17:28;26.40;99.00
46652;DHT22;32377;52.182;5.398;2023-06-24T11:19:54;26.30;98.90
46652;DHT22;32377;52.182;5.398;2023-06-24T11:22:21;26.30;99.20
46652;DHT22;32377;52.182;5.398;2023-06-24T11:24:47;26.30;99.60
46652;DHT22;32377;52.182;5.398;2023-06-24T11:27:13;26.50;99.70
46652;DHT22;32377;52.182;5.398;2023-06-24T11:29:39;26.50;98.80
46652;DHT22;32377;52.182;5.398;2023-06-24T11:32:08;26.60;98.90
46652;DHT22;32377;52.182;5.398;2023-06-24T11:34:34;26.60;98.70
46652;DHT22;32377;52.182;5.398;2023-06-24T11:37:09;26.80;99.20
46652;DHT22;32377;52.182;5.398;2023-06-24T11:39:35;26.90;99.30
46652;DHT22;32377;52.182;5.398;2023-06-24T11:42:01;27.00;99.00
46652;DHT22;32377;52.182;5.398;2023-06-24T11:44:27;27.30;98.20
46652;DHT22;32377;52.182;5.398;2023-06-24T11:46:52;27.40;98.70
46652;DHT22;32377;52.182;5.398;2023-06-24T11:49:19;27.30;97.40
46652;DHT22;32377;52.182;5.398;2023-06-24T11:51:50;27.40;98.00
46652;DHT22;32377;52.182;5.398;2023-06-24T11:54:18;27.40;97.80
46652;DHT22;32377;52.182;5.398;2023-06-24T11:56:50;27.40;97.60
46652;DHT22;32377;52.182;5.398;2023-06-24T11:59:20;27.30;98.70
46652;DHT22;32377;52.182;5.398;2023-06-24T12:01:57;27.10;98.20
46652;DHT22;32377;52.182;5.398;2023-06-24T12:04:33;27.30;99.10
46652;DHT22;32377;52.182;5.398;2023-06-24T12:06:59;27.50;98.60
46652;DHT22;32377;52.182;5.398;2023-06-24T12:09:26;27.50;98.40
46652;DHT22;32377;52.182;5.398;2023-06-24T12:11:52;27.50;99.10
46652;DHT22;32377;52.182;5.398;2023-06-24T12:14:18;27.30;98.50
46652;DHT22;32377;52.182;5.398;2023-06-24T12:16:44;27.50;98.20
46652;DHT22;32377;52.182;5.398;2023-06-24T12:19:10;27.50;98.30
46652;DHT22;32377;52.182;5.398;2023-06-24T12:21:37;27.70;97.60
46652;DHT22;32377;52.182;5.398;2023-06-24T12:24:04;27.50;97.80
46652;DHT22;32377;52.182;5.398;2023-06-24T12:26:33;27.50;98.50
46652;DHT22;32377;52.182;5.398;2023-06-24T12:28:58;27.50;98.40
46652;DHT22;32377;52.182;5.398;2023-06-24T12:31:24;27.50;98.70
46652;DHT22;32377;52.182;5.398;2023-06-24T12:33:51;27.40;98.40
46652;DHT22;32377;52.182;5.398;2023-06-24T12:36:21;27.40;98.20
46652;DHT22;32377;52.182;5.398;2023-06-24T12:38:46;27.40;98.20
46652;DHT22;32377;52.182;5.398;2023-06-24T12:41:12;27.50;99.80
46652;DHT22;32377;52.182;5.398;2023-06-24T12:43:38;27.60;99.10
46652;DHT22;32377;52.182;5.398;2023-06-24T12:46:03;27.70;98.40
46652;DHT22;32377;52.182;5.398;2023-06-24T12:48:29;28.10;97.60
46652;DHT22;32377;52.182;5.398;2023-06-24T12:50:55;28.40;97.30
46652;DHT22;32377;52.182;5.398;2023-06-24T12:53:21;28.60;97.10
46652;DHT22;32377;52.182;5.398;2023-06-24T12:55:47;28.60;96.20
46652;DHT22;32377;52.182;5.398;2023-06-24T12:58:19;28.50;96.50
46652;DHT22;32377;52.182;5.398;2023-06-24T13:00:45;28.30;96.40
46652;DHT22;32377;52.182;5.398;2023-06-24T13:03:11;28.30;96.90
46652;DHT22;32377;52.182;5.398;2023-06-24T13:05:36;28.30;97.60
46652;DHT22;32377;52.182;5.398;2023-06-24T13:08:02;28.50;97.20
46652;DHT22;32377;52.182;5.398;2023-06-24T13:10:28;28.20;96.20
46652;DHT22;32377;52.182;5.398;2023-06-24T13:12:53;28.10;96.00
46652;DHT22;32377;52.182;5.398;2023-06-24T13:15:19;28.10;96.70
46652;DHT22;32377;52.182;5.398;2023-06-24T13:17:44;28.00;96.10
46652;DHT22;32377;52.182;5.398;2023-06-24T13:20:10;28.30;96.30
46652;DHT22;32377;52.182;5.398;2023-06-24T13:22:36;28.40;96.00
46652;DHT22;32377;52.182;5.398;2023-06-24T13:25:02;28.40;96.20
46652;DHT22;32377;52.182;5.398;2023-06-24T13:27:28;28.20;96.70
46652;DHT22;32377;52.182;5.398;2023-06-24T13:29:53;28.20;96.80
46652;DHT22;32377;52.182;5.398;2023-06-24T13:32:19;28.10;97.20
46652;DHT22;32377;52.182;5.398;2023-06-24T13:34:45;28.10;97.10
46652;DHT22;32377;52.182;5.398;2023-06-24T13:37:10;28.30;97.00
46652;DHT22;32377;52.182;5.398;2023-06-24T13:39:36;28.40;96.40
46652;DHT22;32377;52.182;5.398;2023-06-24T13:42:02;28.60;95.90
46652;DHT22;32377;52.182;5.398;2023-06-24T13:44:27;28.90;96.20
46652;DHT22;32377;52.182;5.398;2023-06-24T13:46:53;28.90;96.00
46652;DHT22;32377;52.182;5.398;2023-06-24T13:49:19;28.90;96.40
46652;DHT22;32377;52.182;5.398;2023-06-24T13:51:45;28.40;95.80
46652;DHT22;32377;52.182;5.398;2023-06-24T13:54:10;28.30;96.20
46652;DHT22;32377;52.182;5.398;2023-06-24T13:56:36;28.20;96.30
46652;DHT22;32377;52.182;5.398;2023-06-24T13:59:02;28.10;96.10
46652;DHT22;32377;52.182;5.398;2023-06-24T14:01:28;28.20;96.90
46652;DHT22;32377;52.182;5.398;2023-06-24T14:03:55;28.20;96.40
46652;DHT22;32377;52.182;5.398;2023-06-24T14:06:22;28.30;96.20
46652;DHT22;32377;52.182;5.398;2023-06-24T14:08:49;28.40;95.80
46652;DHT22;32377;52.182;5.398;2023-06-24T14:11:15;28.20;95.40
46652;DHT22;32377;52.182;5.398;2023-06-24T14:13:41;28.30;96.20
46652;DHT22;32377;52.182;5.398;2023-06-24T14:16:07;28.50;95.50
46652;DHT22;32377;52.182;5.398;2023-06-24T14:18:33;28.60;95.30
46652;DHT22;32377;52.182;5.398;2023-06-24T14:21:00;28.60;96.50
46652;DHT22;32377;52.182;5.398;2023-06-24T14:23:27;28.40;96.20
46652;DHT22;32377;52.182;5.398;2023-06-24T14:25:54;28.60;96.00
46652;DHT22;32377;52.182;5.398;2023-06-24T14:28:20;28.60;95.80
46652;DHT22;32377;52.182;5.398;2023-06-24T14:30:45;28.70;95.30
46652;DHT22;32377;52.182;5.398;2023-06-24T14:33:12;29.00;95.20
46652;DHT22;32377;52.182;5.398;2023-06-24T14:35:37;29.10;96.00
46652;DHT22;32377;52.182;5.398;2023-06-24T14:38:03;29.20;95.70
46652;DHT22;32377;52.182;5.398;2023-06-24T14:40:29;29.10;95.20
46652;DHT22;32377;52.182;5.398;2023-06-24T14:42:54;29.10;94.30
46652;DHT22;32377;52.182;5.398;2023-06-24T14:45:20;28.80;94.70
46652;DHT22;32377;52.182;5.398;2023-06-24T14:47:47;29.00;95.40
46652;DHT22;32377;52.182;5.398;2023-06-24T14:50:14;29.20;95.30
46652;DHT22;32377;52.182;5.398;2023-06-24T14:52:39;29.30;94.90
46652;DHT22;32377;52.182;5.398;2023-06-24T14:55:06;29.40;94.70
46652;DHT22;32377;52.182;5.398;2023-06-24T14:57:31;29.40;94.30
46652;DHT22;32377;52.182;5.398;2023-06-24T14:59:57;29.40;95.10
46652;DHT22;32377;52.182;5.398;2023-06-24T15:02:23;29.50;94.90
46652;DHT22;32377;52.182;5.398;2023-06-24T15:04:50;29.50;95.60
46652;DHT22;32377;52.182;5.398;2023-06-24T15:07:15;28.90;95.40
46652;DHT22;32377;52.182;5.398;2023-06-24T15:09:41;28.90;95.70
46652;DHT22;32377;52.182;5.398;2023-06-24T15:12:07;28.90;96.10
46652;DHT22;32377;52.182;5.398;2023-06-24T15:14:32;28.80;95.40
46652;DHT22;32377;52.182;5.398;2023-06-24T15:16:58;28.60;95.00
46652;DHT22;32377;52.182;5.398;2023-06-24T15:19:24;28.60;95.90
46652;DHT22;32377;52.182;5.398;2023-06-24T15:21:49;28.80;95.40
46652;DHT22;32377;52.182;5.398;2023-06-24T15:24:15;28.60;95.50
46652;DHT22;32377;52.182;5.398;2023-06-24T15:26:41;28.60;95.90
46652;DHT22;32377;52.182;5.398;2023-06-24T15:29:06;28.70;95.80
46652;DHT22;32377;52.182;5.398;2023-06-24T15:31:32;28.80;95.00
46652;DHT22;32377;52.182;5.398;2023-06-24T15:33:57;28.80;95.00
46652;DHT22;32377;52.182;5.398;2023-06-24T15:36:24;28.40;95.50
46652;DHT22;32377;52.182;5.398;2023-06-24T15:38:52;28.40;96.20
46652;DHT22;32377;52.182;5.398;2023-06-24T15:41:19;28.40;95.90
46652;DHT22;32377;52.182;5.398;2023-06-24T15:43:44;28.30;96.10
46652;DHT22;32377;52.182;5.398;2023-06-24T15:46:10;28.30;96.00
46652;DHT22;32377;52.182;5.398;2023-06-24T15:48:36;28.20;95.90
46652;DHT22;32377;52.182;5.398;2023-06-24T15:51:04;28.30;96.10
46652;DHT22;32377;52.182;5.398;2023-06-24T15:53:30;28.30;96.20
46652;DHT22;32377;52.182;5.398;2023-06-24T15:58:41;28.30;96.00
46652;DHT22;32377;52.182;5.398;2023-06-24T16:01:06;28.30;96.40
46652;DHT22;32377;52.182;5.398;2023-06-24T16:03:32;28.60;97.80